Time;durP1;ratioP1;P1;durP2;ratioP2;P2;SDS_P1;SDS_P2;PMS_P1;PMS_P2;Temp;Humidity;BMP_temperature;BMP_pressure;BME280_temperature;BME280_humidity;BME280_pressure;Samples;Min_cycle;Max_cycle;Signal;HPM_P1;HPM_P2
2021/09/25 00:00:57;;;;;;;10.45;6.50;;;;;;;15.18;70.18;99988.78;1085566;54;20042;-79
2021/09/25 00:02:10;;;;;;;8.10;5.75;;;;;;;15.13;70.52;99983.91;1085407;46;20065;-78
2021/09/25 00:03:14;;;;;;;8.25;6.38;;;;;;;15.17;70.11;99978.19;1085289;54;20038;-78
2021/09/25 00:04:15;;;;;;;9.00;5.90;;;;;;;15.13;70.19;99978.53;1085515;54;20042;-78
2021/09/25 00:05:23;;;;;;;9.43;5.93;;;;;;;15.16;69.97;99973.81;1085473;54;20034;-79
2021/09/25 00:06:25;;;;;;;8.35;6.10;;;;;;;15.16;70.22;99976.50;1085302;54;20046;-78
2021/09/25 00:07:29;;;;;;;8.45;6.47;;;;;;;15.17;69.95;99972.81;1085120;54;20034;-78
2021/09/25 00:08:31;;;;;;;8.73;5.70;;;;;;;15.13;70.20;99973.16;1085328;54;20034;-79
2021/09/25 00:09:40;;;;;;;7.05;5.75;;;;;;;15.13;70.39;99973.16;1085197;54;20771;-78
2021/09/25 00:10:42;;;;;;;8.93;6.28;;;;;;;15.12;70.18;99970.66;1085227;54;20042;-79
2021/09/25 00:11:48;;;;;;;7.80;5.32;;;;;;;15.12;70.02;99976.84;1085148;46;20054;-78
2021/09/25 00:12:51;;;;;;;7.03;5.47;;;;;;;15.10;70.29;99975.38;1085200;54;20038;-79
2021/09/25 00:13:56;;;;;;;10.38;6.80;;;;;;;15.04;70.48;99974.22;1085276;54;20042;-79
2021/09/25 00:14:57;;;;;;;8.98;6.13;;;;;;;15.01;70.48;99974.59;1086480;39;20516;-78
2021/09/25 00:16:01;;;;;;;9.52;7.13;;;;;;;14.96;70.59;99979.63;1085231;54;20046;-78
2021/09/25 00:17:05;;;;;;;9.80;6.82;;;;;;;14.95;70.75;99980.66;1085424;54;20043;-78
2021/09/25 00:18:09;;;;;;;9.40;6.60;;;;;;;14.95;70.47;99980.66;1085322;54;20042;-78
2021/09/25 00:19:12;;;;;;;8.90;6.28;;;;;;;14.95;70.57;99977.94;1085333;54;20098;-79
2021/09/25 00:20:19;;;;;;;11.10;6.00;;;;;;;14.92;70.57;99979.16;1086154;39;20551;-78
2021/09/25 00:21:21;;;;;;;10.45;6.93;;;;;;;14.95;70.87;99976.13;1085568;54;20030;-79
2021/09/25 00:22:25;;;;;;;8.73;6.30;;;;;;;14.91;70.52;99973.94;1085909;46;20497;-80
2021/09/25 00:23:27;;;;;;;8.63;6.50;;;;;;;14.88;70.99;99985.06;1085629;54;20042;-78
2021/09/25 00:24:32;;;;;;;9.55;6.43;;;;;;;14.92;70.74;99986.41;1085401;54;20533;-78
2021/09/25 00:25:37;;;;;;;9.27;6.70;;;;;;;14.91;71.01;99973.94;1085575;54;20565;-80
2021/09/25 00:26:42;;;;;;;9.48;6.00;;;;;;;14.88;70.86;99982.38;1085423;54;20035;-77
2021/09/25 00:27:48;;;;;;;8.93;5.85;;;;;;;14.87;70.87;99978.00;1085526;54;20052;-79
2021/09/25 00:28:52;;;;;;;8.23;6.90;;;;;;;14.85;71.03;99980.00;1085676;54;20057;-78
2021/09/25 00:29:53;;;;;;;10.32;6.93;;;;;;;14.81;71.21;99977.69;1085174;54;20038;-78
2021/09/25 00:30:58;;;;;;;8.52;6.85;;;;;;;14.81;71.07;99980.38;1085322;54;20030;-77
2021/09/25 00:32:00;;;;;;;9.35;6.32;;;;;;;14.81;71.08;99980.38;1085433;54;20532;-79
2021/09/25 00:33:05;;;;;;;8.60;6.20;;;;;;;14.84;71.20;99978.31;1086121;39;20523;-78
2021/09/25 00:34:08;;;;;;;8.30;6.10;;;;;;;14.80;71.30;99973.31;1085261;54;20576;-78
2021/09/25 00:35:13;;;;;;;10.15;6.22;;;;;;;14.80;71.15;99973.31;1085173;54;20038;-78
2021/09/25 00:36:15;;;;;;;8.73;6.20;;;;;;;14.84;71.02;99978.31;1085350;46;20050;-80
2021/09/25 00:37:19;;;;;;;7.85;6.20;;;;;;;14.85;71.12;99974.63;1085558;39;20441;-79
2021/09/25 00:38:21;;;;;;;8.48;6.40;;;;;;;14.84;71.01;99981.03;1085449;54;20049;-78
2021/09/25 00:39:25;;;;;;;8.38;6.20;;;;;;;14.86;71.01;99976.31;1085293;54;20146;-79
2021/09/25 00:40:29;;;;;;;9.73;7.00;;;;;;;14.84;71.23;99983.72;1084592;54;20057;-77
2021/09/25 00:41:33;;;;;;;8.75;5.97;;;;;;;14.79;70.95;99979.72;1085334;54;20057;-78
2021/09/25 00:42:38;;;;;;;8.73;6.05;;;;;;;14.82;71.32;99982.06;1085354;39;20549;-79
2021/09/25 00:43:39;;;;;;;9.45;6.97;;;;;;;14.82;71.02;99973.13;1085195;54;20038;-78
2021/09/25 00:44:44;;;;;;;8.02;5.88;;;;;;;14.79;71.12;99977.03;1085325;54;20034;-77
2021/09/25 00:45:46;;;;;;;9.20;6.25;;;;;;;14.79;71.25;99974.31;1085602;54;20042;-78
2021/09/25 00:46:50;;;;;;;9.10;5.80;;;;;;;14.78;71.25;99964.56;1085373;54;20751;-80
2021/09/25 00:47:55;;;;;;;9.63;6.88;;;;;;;14.68;71.57;99966.63;1085019;54;20065;-78
2021/09/25 00:48:57;;;;;;;8.75;7.00;;;;;;;14.59;71.73;99973.00;1085151;54;20057;-79
2021/09/25 00:50:01;;;;;;;10.30;6.78;;;;;;;14.57;71.74;99981.28;1085468;54;20112;-78
2021/09/25 00:51:05;;;;;;;11.48;6.95;;;;;;;14.54;71.93;99983.47;1085287;54;20038;-78
2021/09/25 00:52:07;;;;;;;9.02;6.57;;;;;;;14.50;71.89;99983.81;1085441;54;20038;-79
2021/09/25 00:53:12;;;;;;;9.25;6.40;;;;;;;14.53;71.81;99988.00;1085842;39;20426;-78
2021/09/25 00:54:13;;;;;;;8.05;5.90;;;;;;;14.53;71.70;99979.09;1085438;54;20039;-78
2021/09/25 00:55:18;;;;;;;8.85;6.70;;;;;;;14.47;71.94;99986.81;1086208;39;20480;-79
2021/09/25 00:56:19;;;;;;;9.63;6.53;;;;;;;14.51;71.82;99974.72;1085069;54;20053;-78
2021/09/25 00:57:26;;;;;;;7.88;5.60;;;;;;;14.55;71.66;99988.66;1085151;54;20041;-79
2021/09/25 00:58:29;;;;;;;8.13;5.90;;;;;;;14.55;71.84;99988.66;1085598;54;20042;-78
2021/09/25 00:59:35;;;;;;;8.23;6.13;;;;;;;14.53;71.76;99990.69;1085472;54;20035;-78
2021/09/25 01:00:37;;;;;;;8.50;6.45;;;;;;;14.53;71.81;99988.00;1085431;54;20034;-79
2021/09/25 01:01:43;;;;;;;8.32;6.22;;;;;;;14.50;71.90;99993.72;1085277;54;20078;-79
2021/09/25 01:02:45;;;;;;;8.48;6.05;;;;;;;14.50;72.03;99993.72;1085080;54;20580;-78
2021/09/25 01:03:49;;;;;;;8.82;6.15;;;;;;;14.50;71.53;99994.56;1085464;54;20042;-78
2021/09/25 01:04:51;;;;;;;8.57;5.93;;;;;;;14.49;71.62;99992.06;1085598;54;20069;-80
2021/09/25 01:05:57;;;;;;;7.65;5.32;;;;;;;14.46;71.60;99995.91;1085563;54;20646;-79
2021/09/25 01:06:58;;;;;;;7.55;5.93;;;;;;;14.46;71.94;99995.06;1085942;54;20074;-79
2021/09/25 01:08:13;;;;;;;8.65;6.40;;;;;;;14.41;71.94;99995.59;1086963;54;20061;-80
2021/09/25 01:09:16;;;;;;;7.80;5.90;;;;;;;14.42;71.75;99997.28;1086980;54;20039;-79
2021/09/25 01:10:38;;;;;;;11.52;7.22;;;;;;;14.38;71.96;100003.16;1086925;54;20026;-79
2021/09/25 01:11:41;;;;;;;11.30;6.25;;;;;;;14.38;71.82;100001.31;1087200;47;20038;-79
2021/09/25 01:12:51;;;;;;;10.43;6.60;;;;;;;14.37;71.98;99994.25;1086710;54;20034;-80
2021/09/25 01:13:53;;;;;;;8.13;5.38;;;;;;;14.38;71.92;99995.91;1086122;54;20054;-79
2021/09/25 01:14:57;;;;;;;8.85;6.47;;;;;;;14.32;71.81;99992.06;1085753;54;20034;-78
2021/09/25 01:16:01;;;;;;;9.07;6.55;;;;;;;14.37;71.80;99996.09;1086964;39;20531;-77
2021/09/25 01:17:09;;;;;;;8.65;6.50;;;;;;;14.31;72.05;99990.38;1085528;54;20038;-78
2021/09/25 01:18:11;;;;;;;7.82;5.88;;;;;;;14.29;71.94;99991.56;1086957;39;20449;-79
2021/09/25 01:19:25;;;;;;;10.88;6.30;;;;;;;14.24;72.00;99983.19;1085440;54;20034;-78
2021/09/25 01:20:30;;;;;;;8.77;5.90;;;;;;;14.27;72.01;99989.06;1085959;39;20464;-79
2021/09/25 01:21:35;;;;;;;7.72;5.43;;;;;;;14.24;72.17;99989.38;1085540;54;20031;-78
2021/09/25 01:22:41;;;;;;;9.50;6.05;;;;;;;14.26;72.18;99997.31;1085305;54;20337;-78
2021/09/25 01:23:44;;;;;;;9.50;5.82;;;;;;;14.25;71.93;99992.94;1085554;54;20046;-79
2021/09/25 01:24:49;;;;;;;8.40;5.65;;;;;;;14.28;72.11;99995.25;1085590;54;20065;-78
2021/09/25 01:25:51;;;;;;;7.28;5.20;;;;;;;14.27;71.85;99993.59;1085445;54;20042;-79
2021/09/25 01:26:55;;;;;;;7.43;5.18;;;;;;;14.30;71.93;99995.94;1084997;54;20062;-79
2021/09/25 01:27:57;;;;;;;8.20;5.90;;;;;;;14.31;71.69;100000.31;1085223;54;20042;-79
2021/09/25 01:29:06;;;;;;;7.18;4.85;;;;;;;14.33;71.70;99996.44;1085414;54;20034;-78
2021/09/25 01:30:15;;;;;;;7.50;5.45;;;;;;;14.33;71.47;99998.28;1085459;54;20058;-78
2021/09/25 01:31:18;;;;;;;6.78;5.25;;;;;;;14.30;71.89;99991.41;1085069;54;20038;-78
2021/09/25 01:32:23;;;;;;;8.23;5.82;;;;;;;14.29;71.93;99991.56;1085394;54;20042;-79
2021/09/25 01:33:26;;;;;;;7.05;5.40;;;;;;;14.29;71.61;99991.56;1085530;54;20077;-79
2021/09/25 01:34:31;;;;;;;8.85;5.07;;;;;;;14.27;71.97;99990.88;1085572;46;20564;-78
2021/09/25 01:35:36;;;;;;;6.28;4.65;;;;;;;14.27;71.71;99994.44;1086644;39;20402;-79
2021/09/25 01:36:42;;;;;;;8.27;5.72;;;;;;;14.25;71.87;99995.63;1085532;54;20035;-78
2021/09/25 01:37:49;;;;;;;8.85;5.20;;;;;;;14.24;71.80;99989.38;1085669;54;20039;-80
2021/09/25 01:38:51;;;;;;;7.97;5.63;;;;;;;14.21;71.93;99987.06;1085749;47;20129;-78
2021/09/25 01:39:56;;;;;;;8.88;6.20;;;;;;;14.19;72.10;99992.59;1085100;54;20038;-79
2021/09/25 01:40:58;;;;;;;8.70;6.28;;;;;;;14.12;72.32;99988.91;1085202;54;21342;-79
2021/09/25 01:42:04;;;;;;;9.57;6.25;;;;;;;14.13;72.20;99981.66;1085474;54;20054;-78
2021/09/25 01:43:06;;;;;;;8.43;5.60;;;;;;;14.11;72.15;99984.53;1085340;54;20061;-78
2021/09/25 01:44:11;;;;;;;7.35;5.18;;;;;;;14.15;72.19;99979.66;1085423;54;20337;-78
2021/09/25 01:45:15;;;;;;;8.13;6.18;;;;;;;14.11;72.29;99983.72;1085591;54;20046;-78
2021/09/25 01:46:20;;;;;;;7.22;5.75;;;;;;;14.09;72.48;99985.72;1085851;54;20585;-78
2021/09/25 01:47:30;;;;;;;9.77;6.25;;;;;;;14.04;72.41;99983.53;1085596;54;20033;-78
2021/09/25 01:48:35;;;;;;;7.55;5.63;;;;;;;14.05;72.41;99987.91;1086530;54;20042;-79
2021/09/25 01:49:47;;;;;;;10.55;6.43;;;;;;;14.03;72.66;99976.47;1086870;54;20054;-78
2021/09/25 01:50:52;;;;;;;9.75;6.40;;;;;;;13.98;72.70;99984.22;1087030;54;20027;-78
2021/09/25 01:51:58;;;;;;;8.15;6.05;;;;;;;13.95;72.72;99990.75;1087381;54;20034;-78
2021/09/25 01:53:02;;;;;;;8.25;5.82;;;;;;;13.95;72.74;99990.75;1088023;54;20058;-78
2021/09/25 01:55:54;;;;;;;7.93;5.80;;;;;;;13.84;72.96;99986.56;1087792;54;20070;-79
2021/09/25 01:56:58;;;;;;;9.65;6.20;;;;;;;13.82;73.10;99991.25;1087914;54;20034;-78
2021/09/25 01:58:04;;;;;;;8.68;6.43;;;;;;;13.85;72.86;99993.63;1087724;54;20134;-77
2021/09/25 01:59:06;;;;;;;8.63;6.35;;;;;;;13.86;73.03;99997.13;1086570;54;20038;-79
2021/09/25 02:00:14;;;;;;;9.32;6.75;;;;;;;13.78;73.04;99992.63;1086693;54;20025;-80
2021/09/25 02:01:16;;;;;;;8.27;5.88;;;;;;;13.80;72.89;99990.59;1087461;54;20041;-78
2021/09/25 02:02:21;;;;;;;9.85;6.80;;;;;;;13.73;73.34;99993.13;1087610;54;20038;-78
2021/09/25 02:03:23;;;;;;;10.73;6.68;;;;;;;13.74;73.03;99988.56;1087396;54;20051;-79
2021/09/25 02:04:27;;;;;;;10.10;6.43;;;;;;;13.71;73.28;99989.75;1087289;54;20035;-79
2021/09/25 02:05:30;;;;;;;10.77;6.82;;;;;;;13.73;72.93;99989.56;1089101;39;20799;-79
2021/09/25 02:06:36;;;;;;;9.25;7.03;;;;;;;13.72;73.35;99985.22;1086537;54;20033;-79
2021/09/25 02:07:40;;;;;;;9.85;6.50;;;;;;;13.73;73.12;99992.25;1087008;54;20065;-79
2021/09/25 02:08:46;;;;;;;8.80;6.38;;;;;;;13.74;73.13;99988.56;1086358;54;20049;-79
2021/09/25 02:09:49;;;;;;;7.20;5.63;;;;;;;13.73;72.95;99995.81;1086091;54;20537;-79
2021/09/25 02:10:56;;;;;;;8.75;6.05;;;;;;;13.66;73.37;99993.94;1085978;54;20548;-79
2021/09/25 02:11:58;;;;;;;9.55;6.55;;;;;;;13.66;73.28;99993.94;1085618;54;20038;-79
2021/09/25 02:13:03;;;;;;;9.35;6.28;;;;;;;13.65;73.26;99992.25;1085556;54;20046;-79
2021/09/25 02:14:05;;;;;;;9.15;6.43;;;;;;;13.65;73.18;99992.25;1085720;54;20034;-79
2021/09/25 02:15:12;;;;;;;7.82;5.97;;;;;;;13.64;73.18;99991.44;1085769;54;20031;-79
2021/09/25 02:16:14;;;;;;;8.95;6.35;;;;;;;13.65;73.23;99992.25;1085765;54;20061;-78
2021/09/25 02:17:21;;;;;;;9.40;6.38;;;;;;;13.61;73.34;99994.44;1085740;54;20026;-79
2021/09/25 02:18:25;;;;;;;8.32;6.30;;;;;;;13.60;73.29;99995.44;1086989;39;20445;-79
2021/09/25 02:19:31;;;;;;;9.32;6.40;;;;;;;13.56;73.17;100002.13;1085353;54;20048;-78
2021/09/25 02:20:35;;;;;;;9.45;6.18;;;;;;;13.53;73.55;99995.25;1085264;54;20035;-78
2021/09/25 02:21:42;;;;;;;9.05;6.57;;;;;;;13.50;73.86;99992.06;1085454;54;20049;-78
2021/09/25 02:22:46;;;;;;;7.93;5.97;;;;;;;13.52;73.71;99996.25;1085483;54;20034;-79
2021/09/25 02:23:50;;;;;;;9.05;6.30;;;;;;;13.48;73.68;100002.97;1085638;47;20110;-78
2021/09/25 02:24:52;;;;;;;7.82;6.18;;;;;;;13.47;73.67;99995.06;1086391;39;20460;-78
2021/09/25 02:25:58;;;;;;;9.88;5.90;;;;;;;13.52;73.58;100003.50;1085471;54;20033;-78
2021/09/25 02:27:00;;;;;;;7.30;5.43;;;;;;;13.53;73.58;99997.13;1085653;54;20053;-77
2021/09/25 02:28:04;;;;;;;11.52;6.63;;;;;;;13.56;73.40;99996.75;1085670;54;20037;-78
2021/09/25 02:29:06;;;;;;;8.23;5.95;;;;;;;13.43;73.84;99999.94;1085697;54;20038;-77
2021/09/25 02:30:13;;;;;;;11.55;6.80;;;;;;;13.29;74.41;100001.38;1086153;39;20546;-78
2021/09/25 02:31:19;;;;;;;11.13;7.75;;;;;;;13.16;74.66;100001.84;1085495;54;20046;-79
2021/09/25 02:32:23;;;;;;;9.02;6.97;;;;;;;13.07;74.86;100016.25;1085692;54;20098;-78
2021/09/25 02:33:26;;;;;;;12.38;8.02;;;;;;;13.06;75.17;100014.56;1085853;47;20042;-79
2021/09/25 02:34:31;;;;;;;11.15;7.78;;;;;;;12.95;75.16;100007.66;1085577;54;20034;-78
2021/09/25 02:35:35;;;;;;;11.40;7.93;;;;;;;12.91;75.75;100004.44;1086273;47;20575;-77
2021/09/25 02:36:39;;;;;;;11.82;8.30;;;;;;;12.87;75.81;100004.94;1086044;54;20069;-79
2021/09/25 02:37:46;;;;;;;10.98;8.20;;;;;;;12.78;75.91;100002.22;1085710;54;20583;-77
2021/09/25 02:38:50;;;;;;;10.68;7.88;;;;;;;12.77;76.22;100002.34;1085887;54;20043;-77
2021/09/25 02:39:52;;;;;;;12.45;8.40;;;;;;;12.76;76.32;100000.66;1085769;54;20046;-79
2021/09/25 02:40:56;;;;;;;10.30;8.20;;;;;;;12.89;75.68;99994.88;1085517;54;20587;-78
2021/09/25 02:41:57;;;;;;;8.98;6.97;;;;;;;12.98;75.10;99998.44;1085057;54;20576;-78
2021/09/25 02:43:02;;;;;;;9.02;7.50;;;;;;;13.02;75.38;99999.81;1085912;54;20068;-78
2021/09/25 02:44:05;;;;;;;9.10;7.13;;;;;;;13.07;75.20;99995.63;1086081;54;20058;-79
2021/09/25 02:45:11;;;;;;;8.38;6.30;;;;;;;13.18;74.56;99999.00;1085912;54;20658;-79
2021/09/25 02:46:13;;;;;;;8.93;6.63;;;;;;;13.18;74.48;99997.16;1086141;54;20157;-78
2021/09/25 02:47:17;;;;;;;9.85;6.65;;;;;;;13.22;74.25;99987.78;1086042;54;20062;-77
2021/09/25 02:48:19;;;;;;;7.97;6.00;;;;;;;13.23;74.54;100002.03;1085953;54;20042;-77
2021/09/25 02:49:24;;;;;;;8.63;6.40;;;;;;;13.26;74.22;99991.00;1086028;54;20049;-77
2021/09/25 02:50:25;;;;;;;9.57;6.88;;;;;;;13.19;74.29;99998.84;1086168;54;20042;-79
2021/09/25 02:51:30;;;;;;;8.50;6.65;;;;;;;13.21;74.33;99991.47;1086007;47;20573;-78
2021/09/25 02:52:31;;;;;;;8.13;6.50;;;;;;;13.22;74.40;99979.75;1086191;54;20050;-79
2021/09/25 02:53:38;;;;;;;9.25;7.05;;;;;;;13.24;74.22;99993.81;1085937;54;20049;-80
2021/09/25 02:54:41;;;;;;;12.23;6.95;;;;;;;13.18;74.19;99986.44;1086135;54;20038;-78
2021/09/25 02:55:51;;;;;;;10.50;7.65;;;;;;;13.07;74.75;99992.94;1086141;46;20034;-77
2021/09/25 02:56:52;;;;;;;10.43;7.75;;;;;;;13.05;74.59;99994.09;1086449;46;20053;-78
2021/09/25 02:57:58;;;;;;;11.38;7.43;;;;;;;13.05;74.85;99996.78;1086158;54;20041;-77
2021/09/25 02:58:59;;;;;;;11.43;8.07;;;;;;;12.93;75.06;99986.34;1086063;54;20741;-77
2021/09/25 03:00:03;;;;;;;10.27;8.07;;;;;;;12.90;75.07;99983.97;1086205;54;20038;-78
2021/09/25 03:01:05;;;;;;;11.40;8.43;;;;;;;12.88;75.18;99991.34;1086172;54;20042;-78
2021/09/25 03:02:10;;;;;;;9.93;7.65;;;;;;;12.91;75.22;99980.31;1086431;46;20042;-78
2021/09/25 03:03:16;;;;;;;10.50;8.18;;;;;;;12.94;74.86;99993.38;1085939;54;20061;-77
2021/09/25 03:04:19;;;;;;;10.82;7.25;;;;;;;12.98;74.89;99985.88;1085862;54;20137;-77
2021/09/25 03:05:23;;;;;;;12.15;7.43;;;;;;;13.03;74.75;99985.38;1085904;54;20053;-78
2021/09/25 03:06:27;;;;;;;10.18;6.63;;;;;;;13.04;74.73;99987.03;1086170;54;20035;-78
2021/09/25 03:07:32;;;;;;;9.98;7.03;;;;;;;13.03;74.58;99986.22;1086034;54;20039;-78
2021/09/25 03:08:36;;;;;;;12.10;7.50;;;;;;;12.95;75.06;99989.69;1085864;47;20098;-78
2021/09/25 03:09:41;;;;;;;9.13;7.65;;;;;;;12.87;75.42;99986.97;1086093;54;20034;-79
2021/09/25 03:10:43;;;;;;;9.50;7.60;;;;;;;12.94;75.12;99981.81;1086161;54;20042;-79
2021/09/25 03:11:48;;;;;;;10.18;7.40;;;;;;;12.99;74.95;99979.47;1085918;54;20552;-78
2021/09/25 03:12:49;;;;;;;9.85;6.88;;;;;;;13.11;74.42;99985.41;1085871;46;20031;-79
2021/09/25 03:13:55;;;;;;;10.65;7.10;;;;;;;13.19;74.33;99980.06;1086054;54;20049;-78
2021/09/25 03:14:56;;;;;;;11.35;6.90;;;;;;;13.21;74.16;99980.75;1085815;54;20039;-78
2021/09/25 03:16:01;;;;;;;10.95;6.88;;;;;;;13.28;73.84;99983.59;1087388;54;20046;-78
2021/09/25 03:17:03;;;;;;;8.30;6.47;;;;;;;13.31;73.87;99975.22;1087223;46;20049;-80
2021/09/25 03:18:08;;;;;;;8.27;6.45;;;;;;;13.34;73.45;99982.09;1088044;47;20042;-79
2021/09/25 03:19:09;;;;;;;9.80;6.75;;;;;;;13.35;73.48;99978.41;1086916;54;20042;-78
2021/09/25 03:20:16;;;;;;;7.95;6.47;;;;;;;13.35;73.47;99981.09;1086766;46;20065;-78
2021/09/25 03:21:18;;;;;;;8.68;6.53;;;;;;;13.32;73.69;99981.44;1086016;54;20042;-79
2021/09/25 03:22:22;;;;;;;8.30;6.25;;;;;;;13.36;73.78;99980.94;1085979;54;20030;-77
2021/09/25 03:23:25;;;;;;;9.75;6.70;;;;;;;13.40;73.46;99982.31;1086235;54;20065;-79
2021/09/25 03:24:36;;;;;;;9.68;6.70;;;;;;;13.41;73.35;99985.84;1085855;54;20063;-77
2021/09/25 03:25:41;;;;;;;8.35;6.18;;;;;;;13.45;73.52;99989.06;1086045;54;20042;-77
2021/09/25 03:26:43;;;;;;;9.90;7.38;;;;;;;13.45;73.41;99994.41;1086101;54;20042;-77
2021/09/25 03:27:53;;;;;;;9.13;6.63;;;;;;;13.39;73.47;99993.22;1085843;54;20618;-78
2021/09/25 03:28:55;;;;;;;10.93;7.82;;;;;;;13.11;74.41;99988.09;1086514;46;20070;-79
2021/09/25 03:30:02;;;;;;;11.50;8.48;;;;;;;12.93;74.85;99997.09;1085916;54;20042;-78
2021/09/25 03:31:03;;;;;;;10.75;8.40;;;;;;;12.82;74.99;99992.00;1086083;54;20038;-78
2021/09/25 03:32:09;;;;;;;11.07;8.60;;;;;;;12.78;75.08;99990.63;1085822;54;20039;-81
2021/09/25 03:33:12;;;;;;;10.85;8.60;;;;;;;12.72;75.41;99984.06;1086460;39;20421;-77
2021/09/25 03:34:16;;;;;;;10.15;8.00;;;;;;;12.76;75.30;99992.63;1086231;54;20038;-78
2021/09/25 03:35:19;;;;;;;10.93;7.68;;;;;;;12.79;74.98;99984.28;1085777;54;20158;-79
2021/09/25 03:36:25;;;;;;;10.63;7.70;;;;;;;12.86;74.75;99982.63;1085950;54;20038;-79
2021/09/25 03:37:27;;;;;;;10.50;7.45;;;;;;;12.94;74.20;99988.00;1087323;46;20043;-77
2021/09/25 03:38:31;;;;;;;9.82;6.65;;;;;;;13.04;74.10;99979.00;1086113;54;20042;-77
2021/09/25 03:39:38;;;;;;;8.73;6.75;;;;;;;13.06;73.84;99985.03;1086043;54;20062;-78
2021/09/25 03:40:40;;;;;;;8.57;6.63;;;;;;;13.09;73.61;99979.34;1086104;54;20049;-79
2021/09/25 03:41:45;;;;;;;7.35;5.65;;;;;;;13.07;73.83;99976.84;1086350;54;20042;-78
2021/09/25 03:42:47;;;;;;;9.50;6.70;;;;;;;13.06;73.70;99975.16;1085675;54;20557;-78
2021/09/25 03:43:52;;;;;;;11.15;7.78;;;;;;;13.06;73.81;99974.31;1086049;54;20038;-79
2021/09/25 03:44:54;;;;;;;9.40;6.57;;;;;;;13.04;73.73;99981.66;1085761;54;20042;-78
2021/09/25 03:45:59;;;;;;;8.57;6.15;;;;;;;13.02;73.84;99972.97;1086170;54;20030;-78
2021/09/25 03:47:04;;;;;;;9.15;6.22;;;;;;;13.05;73.59;99975.31;1087085;39;20476;-79
2021/09/25 03:48:10;;;;;;;7.65;5.88;;;;;;;13.07;73.72;99981.34;1085876;54;20038;-78
2021/09/25 03:49:12;;;;;;;10.02;6.18;;;;;;;13.06;73.67;99982.34;1086009;54;20065;-78
2021/09/25 03:50:17;;;;;;;8.18;5.70;;;;;;;13.08;73.55;99981.19;1086064;54;20050;-79
2021/09/25 03:51:19;;;;;;;9.75;6.68;;;;;;;13.04;73.58;99987.03;1085996;54;20042;-79
2021/09/25 03:52:23;;;;;;;7.78;6.13;;;;;;;13.06;73.79;99987.72;1085904;54;20046;-78
2021/09/25 03:53:25;;;;;;;8.20;6.20;;;;;;;13.06;73.60;99979.66;1085628;54;20038;-78
2021/09/25 03:54:29;;;;;;;9.30;6.63;;;;;;;13.01;73.83;99982.00;1085563;54;20054;-78
2021/09/25 03:55:35;;;;;;;11.68;6.80;;;;;;;13.01;74.18;99984.69;1086287;39;20660;-78
2021/09/25 03:56:39;;;;;;;9.30;6.13;;;;;;;13.02;73.85;99994.44;1085686;47;20022;-78
2021/09/25 03:57:40;;;;;;;8.45;6.35;;;;;;;12.99;74.08;99984.84;1087172;46;20046;-77
2021/09/25 03:58:46;;;;;;;17.05;6.38;;;;;;;12.99;73.96;99984.84;1085821;54;20054;-79
2021/09/25 03:59:49;;;;;;;8.75;5.90;;;;;;;12.98;73.96;99980.50;1086080;54;20039;-79
2021/09/25 04:00:53;;;;;;;7.78;5.72;;;;;;;12.99;74.13;99984.00;1086012;54;20041;-78
2021/09/25 04:01:55;;;;;;;7.38;5.38;;;;;;;12.98;74.09;99979.66;1086172;54;20049;-79
2021/09/25 04:02:59;;;;;;;7.65;5.50;;;;;;;12.98;74.34;99982.31;1085832;54;20065;-78
2021/09/25 04:04:01;;;;;;;10.88;5.63;;;;;;;12.98;74.03;99985.00;1086141;54;20031;-78
2021/09/25 04:05:05;;;;;;;7.15;5.03;;;;;;;12.98;73.93;99979.66;1085584;54;20038;-79
2021/09/25 04:06:07;;;;;;;7.25;5.82;;;;;;;12.96;74.01;99987.88;1085955;54;20070;-78
2021/09/25 04:07:11;;;;;;;10.13;6.03;;;;;;;12.90;74.22;99985.81;1085915;54;20042;-79
2021/09/25 04:08:13;;;;;;;8.52;5.43;;;;;;;12.92;74.22;99987.34;1085924;54;20074;-78
2021/09/25 04:09:17;;;;;;;8.10;5.72;;;;;;;12.95;74.26;99989.69;1085720;54;20034;-78
2021/09/25 04:10:19;;;;;;;6.97;5.22;;;;;;;12.96;74.00;99979.81;1085633;54;20049;-78
2021/09/25 04:11:25;;;;;;;6.40;4.55;;;;;;;12.98;73.90;99982.31;1087403;46;20046;-78
2021/09/25 04:12:27;;;;;;;7.60;5.22;;;;;;;12.90;73.96;99981.31;1085765;54;20061;-78
2021/09/25 04:13:32;;;;;;;8.05;5.45;;;;;;;12.91;74.21;99985.66;1085776;54;20062;-79
2021/09/25 04:14:33;;;;;;;7.15;4.90;;;;;;;12.90;73.89;99981.31;1085939;54;20038;-79
2021/09/25 04:15:37;;;;;;;6.63;4.82;;;;;;;12.91;73.99;99987.50;1086109;54;20057;-78
2021/09/25 04:16:39;;;;;;;7.78;5.00;;;;;;;12.89;74.16;99986.84;1085600;54;20031;-77
2021/09/25 04:17:43;;;;;;;7.50;5.22;;;;;;;12.89;73.84;99984.97;1086034;54;20034;-78
2021/09/25 04:18:47;;;;;;;6.03;4.30;;;;;;;12.91;73.93;99993.72;1086752;46;20065;-79
2021/09/25 04:19:53;;;;;;;7.28;4.97;;;;;;;12.91;73.81;99993.72;1085844;54;20276;-77
2021/09/25 04:20:54;;;;;;;6.75;4.65;;;;;;;12.90;73.93;99993.84;1085863;54;20042;-77
2021/09/25 04:21:58;;;;;;;6.47;4.85;;;;;;;12.88;74.05;99988.66;1086052;54;20038;-79
2021/09/25 04:23:00;;;;;;;10.18;5.35;;;;;;;12.89;73.99;99989.53;1085782;54;20061;-79
2021/09/25 04:24:06;;;;;;;7.07;4.78;;;;;;;12.88;73.94;99988.66;1086009;54;20038;-79
2021/09/25 04:25:09;;;;;;;7.97;5.53;;;;;;;12.87;73.91;99992.34;1085751;54;20588;-78
2021/09/25 04:26:16;;;;;;;6.60;4.75;;;;;;;12.89;73.70;99993.03;1085695;54;20085;-78
2021/09/25 04:27:20;;;;;;;6.63;4.53;;;;;;;12.89;73.75;99994.88;1085578;54;20038;-78
2021/09/25 04:28:25;;;;;;;7.82;5.18;;;;;;;12.91;73.82;99995.53;1085726;54;20026;-79
2021/09/25 04:29:27;;;;;;;7.05;4.85;;;;;;;12.91;73.47;99991.03;1085849;54;20580;-78
2021/09/25 04:30:31;;;;;;;7.15;4.80;;;;;;;12.89;73.74;99993.03;1086140;54;20050;-78
2021/09/25 04:31:37;;;;;;;7.68;5.05;;;;;;;12.84;73.66;99998.06;1086027;54;20069;-79
2021/09/25 04:32:38;;;;;;;7.43;4.93;;;;;;;12.82;73.76;99999.19;1086193;54;20561;-77
2021/09/25 04:33:42;;;;;;;7.25;5.40;;;;;;;12.75;73.71;99997.16;1085950;54;20038;-78
2021/09/25 04:34:44;;;;;;;6.63;5.40;;;;;;;12.67;74.16;99999.81;1086157;54;20051;-78
2021/09/25 04:35:48;;;;;;;7.22;5.30;;;;;;;12.60;74.28;99996.91;1086191;54;20042;-78
2021/09/25 04:36:50;;;;;;;7.68;5.38;;;;;;;12.56;74.32;99992.88;1085865;54;20293;-78
2021/09/25 04:37:56;;;;;;;9.10;5.47;;;;;;;12.62;74.14;99994.06;1086098;54;20145;-77
2021/09/25 04:38:57;;;;;;;8.55;4.82;;;;;;;12.57;74.21;100002.59;1086038;54;20042;-78
2021/09/25 04:40:03;;;;;;;6.38;4.85;;;;;;;12.55;74.17;99993.03;1085860;54;20045;-78
2021/09/25 04:41:04;;;;;;;7.03;4.82;;;;;;;12.48;74.33;99988.31;1086184;47;20042;-78
2021/09/25 04:42:09;;;;;;;8.45;5.60;;;;;;;12.46;74.32;99992.16;1085976;54;20057;-79
2021/09/25 04:43:16;;;;;;;7.13;5.40;;;;;;;12.44;74.62;99992.28;1086412;39;20675;-78
2021/09/25 04:44:19;;;;;;;9.07;5.40;;;;;;;12.41;74.78;99991.78;1086169;54;20026;-78
2021/09/25 04:45:23;;;;;;;8.45;5.40;;;;;;;12.39;74.47;99983.03;1085883;54;20039;-80
2021/09/25 04:46:25;;;;;;;7.32;5.32;;;;;;;12.37;74.93;99987.75;1085774;54;20050;-79
2021/09/25 04:47:29;;;;;;;8.70;5.43;;;;;;;12.39;74.69;99981.22;1086108;54;20074;-80
2021/09/25 04:48:31;;;;;;;8.80;5.60;;;;;;;12.38;74.82;99981.34;1086247;54;20077;-79
2021/09/25 04:49:35;;;;;;;8.48;5.95;;;;;;;12.40;74.41;99990.09;1086002;54;20126;-79
2021/09/25 04:50:39;;;;;;;6.88;5.05;;;;;;;12.40;74.65;99979.38;1085783;54;20038;-79
2021/09/25 04:51:44;;;;;;;8.02;4.90;;;;;;;12.38;74.47;99984.03;1085943;54;20038;-80
2021/09/25 04:52:46;;;;;;;7.57;4.93;;;;;;;12.41;74.52;99981.06;1086706;39;20505;-80
2021/09/25 04:53:50;;;;;;;6.40;4.93;;;;;;;12.40;74.74;99988.25;1085908;54;20049;-79
2021/09/25 04:54:51;;;;;;;6.82;5.15;;;;;;;12.40;74.42;99984.72;1085796;54;20065;-80
2021/09/25 04:55:55;;;;;;;8.13;5.13;;;;;;;12.38;74.60;99992.06;1086036;54;20623;-79
2021/09/25 04:56:57;;;;;;;9.55;5.60;;;;;;;12.37;74.60;99980.53;1086198;54;20038;-79
2021/09/25 04:58:02;;;;;;;6.15;4.80;;;;;;;12.37;74.70;99985.06;1086146;54;20069;-79
2021/09/25 04:59:08;;;;;;;7.38;5.18;;;;;;;12.38;74.90;99986.72;1086095;54;20066;-79
2021/09/25 05:00:13;;;;;;;6.75;4.80;;;;;;;12.39;74.38;99989.25;1086235;54;20050;-79
2021/09/25 05:01:15;;;;;;;7.43;5.05;;;;;;;12.36;74.93;99986.06;1086300;54;20065;-80
2021/09/25 05:02:19;;;;;;;7.97;5.72;;;;;;;12.39;74.76;99983.03;1086176;54;20046;-79
2021/09/25 05:03:21;;;;;;;8.27;5.38;;;;;;;12.36;74.88;99984.19;1086155;54;20034;-78